Latest Weather Observations for Marion Reef

IDQ60801

Issued at 3:22 pm EST Tuesday 29 September 2020 (issued every 10 minutes, with the page automatically refreshed every 10 minutes)

About weather observations | Map of weather stations | Latest weather observations for QLD | Other Formats
Station Details ID: 200704 Name: MARION REEF Lat: -19.10 Lon: 152.39 Height: 2.0 m
Data from the previous 72 hours. | See also: Recent months for locations in Queensland
Date/Time
EST
Temp
°C
App
Temp
°C
Dew
Point
°C
Rel
Hum
%
Delta-T
°C
Wind Press
QNH
hPa
Press
MSL
hPa
Rain since
9am
mm
Dir  Spd
km/h
Gust
km/h
Spd
kts
Gust
kts
29/03:00pm 23.5 - - - - SE 43 48 23 26 1015.4 1015.4 -
29/02:30pm 23.7 - - - - SE 44 50 24 27 1015.7 1015.7 -
29/02:00pm 23.6 - - - - SE 44 52 24 28 1016.0 1016.0 -
29/01:30pm 23.6 - - - - SE 43 52 23 28 1016.4 1016.4 -
29/01:00pm 23.4 - - - - SE 44 54 24 29 1016.8 1016.8 -
29/12:30pm 23.3 - - - - SE 43 48 23 26 1017.5 1017.5 -
29/12:00pm 23.4 - - - - SSE 39 46 21 25 1017.9 1017.9 -
29/11:30am 23.3 - - - - SSE 37 43 20 23 1018.5 1018.5 -
29/11:00am 23.4 - - - - SE 37 44 20 24 1019.0 1019.0 -
29/10:30am 23.4 - - - - SE 39 48 21 26 1019.1 1019.1 -
29/10:00am 23.2 - - - - SE 41 46 22 25 1019.2 1019.2 -
29/09:30am 23.2 - - - - SE 43 48 23 26 1019.2 1019.2 -
29/09:00am 23.1 - - - - SE 41 46 22 25 1019.2 1019.2 -
29/08:30am 23.1 - - - - SE 48 56 26 30 1019.0 1019.0 -
29/08:00am 23.2 - - - - SE 43 52 23 28 1018.7 1018.7 -
29/07:30am 23.1 - - - - SE 46 54 25 29 1018.5 1018.5 -
29/07:00am 23.0 - - - - SE 46 54 25 29 1018.0 1018.0 -
29/06:30am 23.0 - - - - SE 41 50 22 27 1017.7 1017.7 -
29/06:00am 23.1 - - - - SE 41 48 22 26 1017.3 1017.3 -
29/05:30am 22.8 - - - - SE 44 52 24 28 1017.0 1017.0 -
29/05:00am 23.0 - - - - SE 43 52 23 28 1016.8 1016.8 -
29/04:30am 22.9 - - - - SE 44 56 24 30 1016.4 1016.4 -
29/04:00am 22.8 - - - - SE 44 54 24 29 1016.3 1016.3 -
29/03:30am 22.8 - - - - SE 43 52 23 28 1016.3 1016.3 -
29/03:00am 22.9 - - - - SE 44 50 24 27 1016.3 1016.3 -
29/02:30am 23.0 - - - - SE 43 52 23 28 1016.5 1016.5 -
29/02:00am 22.9 - - - - SE 44 52 24 28 1016.9 1016.9 -
29/01:30am 23.0 - - - - SE 44 52 24 28 1017.3 1017.3 -
29/01:00am 23.0 - - - - SE 46 56 25 30 1017.6 1017.6 -
29/12:30am 23.1 - - - - SE 46 57 25 31 1017.9 1017.9 -
29/12:00am 23.3 - - - - SE 46 54 25 29 1018.3 1018.3 -
 
Date/Time
EST
Temp
°C
App
Temp
°C
Dew
Point
°C
Rel
Hum
%
Delta-T
°C
Wind Press
QNH
hPa
Press
MSL
hPa
Rain since
9am
mm
Dir  Spd
km/h
Gust
km/h
Spd
kts
Gust
kts
28/11:30pm 23.3 - - - - SE 48 57 26 31 1018.7 1018.7 -
28/11:00pm 23.4 - - - - SSE 50 61 27 33 1018.9 1018.9 -
28/10:30pm 23.5 - - - - SE 48 57 26 31 1018.8 1018.8 -
28/10:00pm 23.3 - - - - SSE 50 59 27 32 1018.8 1018.8 -
28/09:30pm 23.3 - - - - SSE 50 57 27 31 1018.7 1018.7 -
28/09:00pm 23.3 - - - - SE 46 57 25 31 1018.6 1018.6 -
28/08:30pm 23.4 - - - - SSE 46 56 25 30 1018.5 1018.5 -
28/08:00pm 23.5 - - - - SE 44 52 24 28 1018.3 1018.3 -
28/07:30pm 23.4 - - - - SSE 44 52 24 28 1018.1 1018.1 -
28/07:00pm 23.6 - - - - SE 43 48 23 26 1017.9 1017.9 -
28/06:30pm 23.6 - - - - SSE 41 48 22 26 1017.6 1017.6 -
28/06:00pm 23.7 - - - - SE 41 46 22 25 1017.2 1017.2 -
28/05:30pm 23.7 - - - - SE 41 46 22 25 1016.6 1016.6 -
28/05:00pm 23.8 - - - - SE 41 50 22 27 1016.3 1016.3 -
28/04:30pm 23.8 - - - - SE 39 46 21 25 1016.1 1016.1 -
28/04:00pm 23.9 - - - - SE 39 44 21 24 1016.0 1016.0 -
28/03:30pm 24.0 - - - - SE 37 43 20 23 1016.0 1016.0 -
28/03:00pm 24.0 - - - - SE 37 43 20 23 1015.9 1015.9 -
28/02:30pm 24.3 - - - - SE 37 43 20 23 1016.1 1016.1 -
28/02:00pm 24.2 - - - - SE 37 43 20 23 1016.4 1016.4 -
28/01:30pm 24.1 - - - - SE 35 43 19 23 1016.8 1016.8 -
28/01:00pm 24.2 - - - - ESE 35 41 19 22 1017.3 1017.3 -
28/12:30pm 24.2 - - - - ESE 35 41 19 22 1017.7 1017.7 -
28/12:00pm 24.3 - - - - ESE 35 43 19 23 1018.1 1018.1 -
28/11:30am 24.3 - - - - ESE 37 44 20 24 1018.3 1018.3 -
28/11:00am 24.4 - - - - ESE 39 44 21 24 1018.5 1018.5 -
28/10:30am 24.4 - - - - ESE 37 43 20 23 1019.0 1019.0 -
28/10:00am 24.5 - - - - ESE 39 44 21 24 1019.2 1019.2 -
28/09:30am 24.2 - - - - SE 39 46 21 25 1019.3 1019.3 -
28/09:00am 24.4 - - - - ESE 37 43 20 23 1019.2 1019.2 -
28/08:30am 24.5 - - - - ESE 39 46 21 25 1019.1 1019.1 -
28/08:00am 24.4 - - - - ESE 39 44 21 24 1019.0 1019.0 -
28/07:30am 24.4 - - - - ESE 39 44 21 24 1018.6 1018.6 -
28/07:00am 24.2 - - - - ESE 35 43 19 23 1018.2 1018.2 -
28/06:30am 24.3 - - - - ESE 39 43 21 23 1018.0 1018.0 -
28/06:00am 24.2 - - - - ESE 32 41 17 22 1017.6 1017.6 -
28/05:30am 24.2 - - - - ESE 37 43 20 23 1017.2 1017.2 -
28/05:00am 24.4 - - - - E 37 43 20 23 1016.9 1016.9 -
28/04:30am 24.0 - - - - E 37 43 20 23 1016.6 1016.6 -
28/04:00am 24.3 - - - - E 35 41 19 22 1016.5 1016.5 -
28/03:30am 24.3 - - - - E 33 41 18 22 1016.4 1016.4 -
28/03:00am 24.0 - - - - ESE 35 39 19 21 1016.3 1016.3 -
28/02:30am 24.1 - - - - ESE 33 39 18 21 1016.5 1016.5 -
28/02:00am 24.1 - - - - ESE 32 39 17 21 1016.7 1016.7 -
28/01:30am 24.4 - - - - ESE 32 35 17 19 1017.1 1017.1 -
28/01:00am 24.3 - - - - ESE 30 35 16 19 1017.5 1017.5 -
28/12:30am 24.1 - - - - ESE 30 35 16 19 1017.7 1017.7 -
28/12:00am 24.7 - - - - ESE 30 35 16 19 1018.0 1018.0 -
 
Date/Time
EST
Temp
°C
App
Temp
°C
Dew
Point
°C
Rel
Hum
%
Delta-T
°C
Wind Press
QNH
hPa
Press
MSL
hPa
Rain since
9am
mm
Dir  Spd
km/h
Gust
km/h
Spd
kts
Gust
kts
27/11:30pm 24.5 - - - - ESE 30 35 16 19 1018.2 1018.2 -
27/11:00pm 24.3 - - - - ESE 30 33 16 18 1018.3 1018.3 -
27/10:30pm 24.5 - - - - ESE 30 33 16 18 1018.3 1018.3 -
27/10:00pm 24.7 - - - - ESE 28 32 15 17 1018.5 1018.5 -
27/09:30pm 24.4 - - - - SE 28 33 15 18 1018.7 1018.7 -
27/09:00pm 24.8 - - - - SE 28 32 15 17 1018.7 1018.7 -
27/08:30pm 24.7 - - - - SE 28 33 15 18 1018.5 1018.5 -
27/08:00pm 24.6 - - - - SE 28 32 15 17 1018.2 1018.2 -
27/07:30pm 24.6 - - - - SE 26 28 14 15 1017.9 1017.9 -
27/07:00pm 24.6 - - - - ESE 26 32 14 17 1017.5 1017.5 -
27/06:30pm 24.6 - - - - SE 24 30 13 16 1017.1 1017.1 -
27/06:00pm 24.6 - - - - ESE 24 30 13 16 1016.8 1016.8 -
27/05:30pm 24.7 - - - - SSE 24 28 13 15 1016.5 1016.5 -
27/05:00pm 24.9 - - - - SE 24 30 13 16 1016.2 1016.2 -
27/04:30pm 24.6 - - - - ESE 26 30 14 16 1015.9 1015.9 -
27/04:00pm 24.8 - - - - SE 26 30 14 16 1015.8 1015.8 -
27/03:30pm 24.9 - - - - ESE 26 30 14 16 1015.6 1015.6 -
27/03:00pm 24.7 - - - - ESE 24 28 13 15 1015.8 1015.8 -
27/02:30pm 24.7 - - - - SE 24 30 13 16 1016.1 1016.1 -
27/02:00pm 24.9 - - - - ESE 26 32 14 17 1016.3 1016.3 -
27/01:30pm 24.8 - - - - ESE 26 30 14 16 1016.7 1016.7 -
27/01:00pm 24.8 - - - - SE 28 32 15 17 1016.8 1016.8 -
27/12:30pm 24.8 - - - - SE 28 32 15 17 1017.1 1017.1 -
27/12:00pm 24.8 - - - - ESE 28 32 15 17 1017.5 1017.5 -
27/11:30am 24.8 - - - - SE 26 30 14 16 1017.9 1017.9 -
27/11:00am 24.8 - - - - SE 28 32 15 17 1018.4 1018.4 -
27/10:30am 24.8 - - - - SE 28 33 15 18 1018.6 1018.6 -
27/10:00am 24.6 - - - - SE 30 33 16 18 1018.8 1018.8 -
27/09:30am 24.6 - - - - SSE 30 33 16 18 1018.8 1018.8 -
27/09:00am 24.6 - - - - SE 26 32 14 17 1018.7 1018.7 -
27/08:30am 24.9 - - - - SSE 26 30 14 16 1018.6 1018.6 -
27/08:00am 24.8 - - - - SSE 24 28 13 15 1018.3 1018.3 -
27/07:30am 24.7 - - - - SSE 24 26 13 14 1017.8 1017.8 -
27/07:00am 24.7 - - - - SSE 22 24 12 13 1017.3 1017.3 -
27/06:30am 24.7 - - - - SSE 22 26 12 14 1016.9 1016.9 -
27/06:00am 24.5 - - - - SE 22 24 12 13 1016.4 1016.4 -
27/05:30am 24.5 - - - - SE 20 24 11 13 1015.9 1015.9 -
27/05:00am 24.4 - - - - SE 19 20 10 11 1015.5 1015.5 -
27/04:30am 24.2 - - - - SSE 19 20 10 11 1015.2 1015.2 -
27/04:00am 24.3 - - - - SSE 19 22 10 12 1015.0 1015.0 -
27/03:30am 24.0 - - - - SSE 17 20 9 11 1014.9 1014.9 -
27/03:00am 24.1 - - - - ESE 15 17 8 9 1014.8 1014.8 -
27/02:30am 24.1 - - - - E 15 19 8 10 1014.9 1014.9 -
27/02:00am 24.3 - - - - ENE 17 19 9 10 1015.0 1015.0 -
27/01:30am 24.3 - - - - ENE 22 26 12 14 1015.1 1015.1 -
27/01:00am 24.1 - - - - ENE 24 28 13 15 1015.2 1015.2 -
27/12:30am 24.2 - - - - ENE 24 28 13 15 1015.6 1015.6 -
27/12:00am 24.5 - - - - CALM 0 7 0 4 1016.1 1016.1 -
 
Date/Time
EST
Temp
°C
App
Temp
°C
Dew
Point
°C
Rel
Hum
%
Delta-T
°C
Wind Press
QNH
hPa
Press
MSL
hPa
Rain since
9am
mm
Dir  Spd
km/h
Gust
km/h
Spd
kts
Gust
kts
26/11:30pm 24.6 - - - - CALM 0 6 0 3 1016.7 1016.7 -
26/11:00pm 24.6 - - - - CALM 0 4 0 2 1016.9 1016.9 -
26/10:30pm 24.6 - - - - CALM 0 4 0 2 1017.2 1017.2 -
26/10:00pm 24.7 - - - - CALM 0 11 0 6 1017.3 1017.3 -
26/09:30pm 24.8 - - - - CALM 0 4 0 2 1017.4 1017.4 -
26/09:00pm 24.9 - - - - CALM 0 4 0 2 1017.4 1017.4 -
26/08:30pm 24.8 - - - - CALM 0 9 0 5 1017.4 1017.4 -
26/08:00pm 24.9 - - - - CALM 0 6 0 3 1017.3 1017.3 -
26/07:30pm 24.7 - - - - CALM 0 4 0 2 1017.2 1017.2 -
26/07:00pm 24.7 - - - - CALM 0 6 0 3 1016.8 1016.8 -
26/06:30pm 24.7 - - - - S 2 6 1 3 1016.4 1016.4 -
26/06:00pm 24.8 - - - - S 2 7 1 4 1016.0 1016.0 -
26/05:30pm 24.7 - - - - SSE 2 7 1 4 1015.8 1015.8 -
26/05:00pm 24.9 - - - - S 2 6 1 3 1015.5 1015.5 -
26/04:30pm 25.0 - - - - S 2 11 1 6 1015.3 1015.3 -
26/04:00pm 25.0 - - - - CALM 0 6 0 3 1015.1 1015.1 -
26/03:30pm 24.9 - - - - CALM 0 7 0 4 1014.9 1014.9 -

Other formats

Comma delimited format used in spreadsheet applications
http://www.bom.gov.au/fwo/IDQ60801/IDQ60801.94298.axf

JavaScript Object Notation format (JSON) in row-major order
http://www.bom.gov.au/fwo/IDQ60801/IDQ60801.94298.json

Data quality

Most of these data are generated automatically and are frequently updated. Quality checks on data are not normally performed. It is possible for incorrect values to appear. Refer to information at About Latest Weather Observations and please check the disclaimer before using these data.